Etusivu
METAR-TAF:

METAR-TAF

Lentoasemat :

Lima, Peru

Leveyspiiri: 12-00S, Pituuspiiri: 077-07W, korkeus merenpinnasta: 12 m

Tämänhetkinen sää

Tämä raportti tehtiin 1 tunti ja 0 minuuttia sitten, kello 19.00 UTC
Tuuli 8 kn lounaasta
Lämpötila 28°C
Kosteus 66%
Ilmanpaine 1010 hPa
Näkyvyys 10 km tai enemmän
ei pilviä alle 1500 m:ssä eikä cumulonimbus-pilviä

METAR: SPJC 241900Z 22008KT CAVOK 28/21 Q1010 NOSIG RMK PP000

Aika: 15:00 (20:00 UTC)

Sääennuste

Tämä raportti tehtiin 3 tuntia ja 0 minuuttia sitten, kello 17.00 UTC
Ennuste voimassa 24. päivästä klo 18 UTC - 25. päivään klo 18 UTC
Tuuli 12 kn etelästä
Näkyvyys 10 km tai enemmän
Muutamia pilviä 1500 ft:n korkeudessa
From 25. päivästä klo 0300 UTC
Tuuli 8 kn etelästä
Näkyvyys 10 km tai enemmän
Hajonneita pilviä 10000 ft:n korkeudessa

TAF: SPJC 241700Z 2418/2518 18012KT 9999 FEW015 TX30/2419Z TN23/2511Z FM250300 17008KT 9999 BKN100

Säähavainnot ja -ennusteet yli 4000 lentoasemalta (METAR- ja TAF-raportit).

Käytössä olevat sääasemat on merkitty karttaan keltaisilla ja punaisilla pisteillä.

Aseta hiiri pisteen päälle nähdäksesi sääaseman nimen.

Klikkaa sitten nähdäksesi säähavainnot ja -ennusteet.

Kartan vaihtaminen: klikkaa mustalla rastilla varustettuja vihreitä pisteitä, niin voit zoomata sisään; viivalla varustettua vihreää pistettä, niin voit zoomata ulos tai vihreitä nuolia, niin pääset viereisille kartoille.


METAR-TAF: